Time;durP1;ratioP1;P1;durP2;ratioP2;P2;SDS_P1;SDS_P2;PMS_P1;PMS_P2;Temp;Humidity;BMP_temperature;BMP_pressure;BME280_temperature;BME280_humidity;BME280_pressure;Samples;Min_cycle;Max_cycle;Signal;HPM_P1;HPM_P2
2022/09/19 00:01:30;;;;;;;0.23;0.20;;;12.50;99.90;;;;;;7397358;19;20134;-77
2022/09/19 00:03:59;;;;;;;0.20;0.20;;;12.60;99.90;;;;;;7395141;19;20212;-74
2022/09/19 00:06:27;;;;;;;0.40;0.30;;;12.60;99.90;;;;;;7397553;19;20703;-75
2022/09/19 00:08:54;;;;;;;0.20;0.20;;;12.40;99.90;;;;;;7394587;19;20139;-77
2022/09/19 00:11:21;;;;;;;0.20;0.20;;;12.60;99.90;;;;;;7397165;19;20498;-76
2022/09/19 00:13:49;;;;;;;0.27;0.27;;;12.70;99.90;;;;;;7396425;19;20214;-76
2022/09/19 00:16:38;;;;;;;0.20;0.20;;;12.40;99.90;;;;;;7395448;19;20599;-75
2022/09/19 00:19:06;;;;;;;0.30;0.30;;;12.60;99.90;;;;;;7394199;19;20129;-75
2022/09/19 00:21:35;;;;;;;0.20;0.20;;;12.40;99.90;;;;;;7396435;19;20134;-76
2022/09/19 00:26:45;;;;;;;0.20;0.20;;;12.60;99.90;;;;;;7396064;19;20131;-76
2022/09/19 00:29:12;;;;;;;0.10;0.10;;;12.60;99.90;;;;;;7393722;19;20583;-76
2022/09/19 00:31:39;;;;;;;0.20;0.20;;;12.70;99.90;;;;;;7394061;19;20143;-74
2022/09/19 00:34:06;;;;;;;0.30;0.30;;;12.70;99.90;;;;;;7394008;19;20149;-75
2022/09/19 00:36:33;;;;;;;0.20;0.20;;;12.80;99.90;;;;;;7393775;19;20131;-75
2022/09/19 00:39:01;;;;;;;0.40;0.40;;;12.70;99.90;;;;;;7393672;19;20139;-75
2022/09/19 00:41:27;;;;;;;0.20;0.20;;;12.70;99.90;;;;;;7395662;19;20130;-76
2022/09/19 00:44:02;;;;;;;0.30;0.20;;;12.40;99.90;;;;;;7391114;19;20253;-75
2022/09/19 00:46:31;;;;;;;0.20;0.20;;;12.30;99.90;;;;;;7395286;19;20237;-76
2022/09/19 00:49:13;;;;;;;0.37;0.20;;;12.20;99.90;;;;;;7393488;19;20461;-76
2022/09/19 00:51:46;;;;;;;0.20;0.20;;;12.30;99.90;;;;;;7394192;19;20501;-74
2022/09/19 00:54:17;;;;;;;0.47;0.20;;;12.40;99.90;;;;;;7394468;19;20138;-76
2022/09/19 00:56:50;;;;;;;0.33;0.20;;;12.40;99.90;;;;;;7395484;19;20155;-75
2022/09/19 00:59:18;;;;;;;0.30;0.30;;;12.40;99.90;;;;;;7390414;19;20156;-76
2022/09/19 01:01:44;;;;;;;0.20;0.20;;;12.20;99.90;;;;;;7395401;19;20894;-76
2022/09/19 01:04:21;;;;;;;0.30;0.30;;;12.30;99.90;;;;;;7395281;19;20143;-76
2022/09/19 01:06:48;;;;;;;0.47;0.20;;;12.10;99.90;;;;;;7395503;19;20147;-76
2022/09/19 01:09:38;;;;;;;0.20;0.20;;;12.10;99.90;;;;;;7391308;19;20135;-76
2022/09/19 01:12:23;;;;;;;1.40;0.73;;;12.10;99.90;;;;;;7394059;19;20143;-76
2022/09/19 01:15:24;;;;;;;0.20;0.20;;;12.10;99.90;;;;;;7393484;19;20146;-76
2022/09/19 01:17:57;;;;;;;0.20;0.20;;;12.20;99.90;;;;;;7392911;19;20130;-77
2022/09/19 01:20:44;;;;;;;0.50;0.50;;;11.80;99.90;;;;;;7394878;19;20146;-76
2022/09/19 01:23:36;;;;;;;0.20;0.20;;;12.00;99.90;;;;;;7393540;19;20139;-76
2022/09/19 01:26:11;;;;;;;0.20;0.20;;;12.10;99.90;;;;;;7391749;19;20150;-76
2022/09/19 01:28:44;;;;;;;0.30;0.23;;;12.10;99.90;;;;;;7392906;19;20138;-75
2022/09/19 01:31:27;;;;;;;0.47;0.20;;;12.20;99.90;;;;;;7393106;19;20142;-76
2022/09/19 01:34:26;;;;;;;0.27;0.27;;;12.00;99.90;;;;;;7391984;19;20154;-75
2022/09/19 01:37:22;;;;;;;0.30;0.30;;;12.10;99.90;;;;;;7391507;19;20165;-75
2022/09/19 01:39:50;;;;;;;0.40;0.20;;;12.10;99.90;;;;;;7391413;19;20151;-75
2022/09/19 01:42:20;;;;;;;1.47;0.33;;;12.20;99.90;;;;;;7392252;19;20154;-75
2022/09/19 01:44:46;;;;;;;0.30;0.30;;;12.20;99.90;;;;;;7392079;19;20150;-76
2022/09/19 01:47:52;;;;;;;0.30;0.30;;;12.20;99.90;;;;;;7392653;19;20153;-76
2022/09/19 01:50:38;;;;;;;1.00;0.40;;;12.30;99.90;;;;;;7390109;19;20146;-76
2022/09/19 01:53:05;;;;;;;0.47;0.30;;;11.90;99.90;;;;;;7393933;19;20516;-76
2022/09/19 01:55:49;;;;;;;0.37;0.30;;;11.70;99.90;;;;;;7392255;19;20154;-76
2022/09/19 01:58:19;;;;;;;0.30;0.30;;;11.90;99.90;;;;;;7393689;19;20146;-76
2022/09/19 02:01:03;;;;;;;0.33;0.20;;;12.00;99.90;;;;;;7391382;19;20150;-76
2022/09/19 02:03:44;;;;;;;0.40;0.33;;;11.90;99.90;;;;;;7393414;19;20165;-77
2022/09/19 02:06:27;;;;;;;1.67;0.40;;;11.70;99.90;;;;;;7391434;19;20575;-75
2022/09/19 02:09:04;;;;;;;0.73;0.40;;;11.80;99.90;;;;;;7390745;19;20503;-76
2022/09/19 02:11:30;;;;;;;0.30;0.30;;;11.60;99.90;;;;;;7392162;19;20154;-76
2022/09/19 02:14:07;;;;;;;0.30;0.30;;;11.60;99.90;;;;;;7390467;19;20518;-76
2022/09/19 02:16:46;;;;;;;0.30;0.30;;;11.60;99.90;;;;;;7392829;19;20142;-75
2022/09/19 02:19:25;;;;;;;0.83;0.30;;;11.30;99.90;;;;;;7390724;19;20234;-75
2022/09/19 02:21:56;;;;;;;0.33;0.30;;;11.60;99.90;;;;;;7390089;19;20165;-75
2022/09/19 02:24:30;;;;;;;1.80;0.30;;;11.20;99.90;;;;;;7391500;19;20165;-76
2022/09/19 02:27:09;;;;;;;0.50;0.43;;;11.40;99.90;;;;;;7393700;19;20488;-75
2022/09/19 02:29:44;;;;;;;0.50;0.40;;;11.90;99.90;;;;;;7389834;19;20254;-76
2022/09/19 02:32:11;;;;;;;0.83;0.43;;;11.70;99.90;;;;;;7392567;19;20158;-76
2022/09/19 02:34:37;;;;;;;1.07;0.40;;;11.50;99.90;;;;;;7389674;19;20165;-76
2022/09/19 02:37:21;;;;;;;1.07;0.20;;;11.50;99.90;;;;;;7389630;19;20151;-76
2022/09/19 02:40:25;;;;;;;0.90;0.40;;;11.50;99.90;;;;;;7391272;19;20173;-76
2022/09/19 02:43:02;;;;;;;0.83;0.30;;;11.80;99.90;;;;;;7387935;19;20162;-75
2022/09/19 02:45:34;;;;;;;0.40;0.30;;;11.80;99.90;;;;;;7388910;19;20138;-76
2022/09/19 02:48:06;;;;;;;0.97;0.60;;;11.50;99.90;;;;;;7387923;19;20160;-76
2022/09/19 02:50:59;;;;;;;2.03;0.30;;;11.60;99.90;;;;;;7389723;19;20667;-75
2022/09/19 02:53:29;;;;;;;1.53;0.60;;;11.50;99.90;;;;;;7390064;19;20138;-77
2022/09/19 02:56:00;;;;;;;0.30;0.30;;;11.50;99.90;;;;;;7389809;19;20151;-75
2022/09/19 02:58:30;;;;;;;0.53;0.40;;;11.40;99.90;;;;;;7389794;19;20138;-75
2022/09/19 03:01:02;;;;;;;1.60;0.40;;;11.50;99.90;;;;;;7390674;19;20197;-76
2022/09/19 03:06:26;;;;;;;2.37;0.50;;;11.80;99.90;;;;;;7393360;19;20130;-80
2022/09/19 03:08:54;;;;;;;1.43;0.70;;;11.60;99.90;;;;;;7390600;19;20171;-80
2022/09/19 03:11:22;;;;;;;0.60;0.40;;;11.70;99.90;;;;;;7389942;19;20151;-80
2022/09/19 03:13:48;;;;;;;2.80;0.70;;;11.70;99.90;;;;;;7391635;19;20592;-80
2022/09/19 03:16:17;;;;;;;1.23;0.50;;;11.80;99.90;;;;;;7390506;19;20131;-75
2022/09/19 03:18:46;;;;;;;1.73;0.40;;;12.00;99.90;;;;;;7390304;19;20549;-75
2022/09/19 03:21:13;;;;;;;0.50;0.30;;;11.70;99.90;;;;;;7391637;19;20134;-75
2022/09/19 03:23:48;;;;;;;1.20;0.50;;;11.90;99.90;;;;;;7390418;19;20134;-75
2022/09/19 03:26:21;;;;;;;1.43;0.57;;;11.80;99.90;;;;;;7396585;19;20865;-75
2022/09/19 03:28:47;;;;;;;1.07;0.60;;;11.90;99.90;;;;;;7397045;19;20141;-74
2022/09/19 03:31:14;;;;;;;1.10;0.40;;;11.80;99.90;;;;;;7397906;19;20159;-75
2022/09/19 03:33:39;;;;;;;0.63;0.40;;;11.90;99.90;;;;;;7399322;19;20483;-75
2022/09/19 03:36:07;;;;;;;1.97;0.40;;;11.90;99.90;;;;;;7398290;19;20510;-77
2022/09/19 03:38:44;;;;;;;1.97;0.80;;;11.90;99.90;;;;;;7395487;19;20256;-75
2022/09/19 03:41:10;;;;;;;1.70;0.57;;;11.90;99.90;;;;;;7398129;19;20147;-75
2022/09/19 03:43:36;;;;;;;1.20;0.70;;;12.00;99.90;;;;;;7397084;19;20151;-75
2022/09/19 03:46:02;;;;;;;2.90;0.73;;;11.90;99.90;;;;;;7396048;19;20150;-76
2022/09/19 03:48:27;;;;;;;3.50;0.60;;;11.80;99.90;;;;;;7395820;19;20131;-75
2022/09/19 03:50:53;;;;;;;2.57;0.50;;;12.00;99.90;;;;;;7395715;19;20146;-76
2022/09/19 03:53:20;;;;;;;0.80;0.60;;;12.10;99.90;;;;;;7396133;19;20134;-74
2022/09/19 03:55:46;;;;;;;1.53;0.60;;;12.00;99.90;;;;;;7395709;19;20529;-75
2022/09/19 03:58:12;;;;;;;1.30;0.60;;;11.90;99.90;;;;;;7397110;19;20177;-76
2022/09/19 04:00:38;;;;;;;0.60;0.50;;;11.70;99.90;;;;;;7398054;19;20152;-75
2022/09/19 04:03:04;;;;;;;1.27;0.50;;;11.90;99.90;;;;;;7397742;19;20134;-75
2022/09/19 04:05:32;;;;;;;2.00;0.53;;;12.00;99.90;;;;;;7396653;19;20135;-75
2022/09/19 04:07:58;;;;;;;1.63;0.50;;;11.80;99.90;;;;;;7396153;19;20142;-76
2022/09/19 04:10:24;;;;;;;0.93;0.40;;;12.20;99.90;;;;;;7392522;19;20127;-75
2022/09/19 04:12:50;;;;;;;4.17;0.60;;;11.80;99.90;;;;;;7395988;19;20149;-76
2022/09/19 04:15:16;;;;;;;1.90;0.63;;;11.60;99.90;;;;;;7395257;19;20775;-76
2022/09/19 04:17:42;;;;;;;1.90;0.53;;;11.90;99.90;;;;;;7396918;19;20170;-76
2022/09/19 04:20:10;;;;;;;6.20;0.70;;;11.70;99.90;;;;;;7396245;19;20143;-76
2022/09/19 04:22:37;;;;;;;1.13;0.53;;;11.90;99.90;;;;;;7397572;19;20130;-78
2022/09/19 04:25:10;;;;;;;4.37;0.90;;;11.80;99.90;;;;;;7396362;19;20193;-75
2022/09/19 04:27:37;;;;;;;3.23;0.50;;;11.60;99.90;;;;;;7399101;19;20544;-75
2022/09/19 04:30:04;;;;;;;2.20;0.67;;;11.50;99.90;;;;;;7397182;19;20147;-75
2022/09/19 04:32:30;;;;;;;1.07;0.40;;;11.60;99.90;;;;;;7398026;19;20171;-76
2022/09/19 04:34:59;;;;;;;2.30;0.70;;;11.80;99.90;;;;;;7397734;19;20134;-75
2022/09/19 04:37:26;;;;;;;4.30;1.07;;;11.80;99.90;;;;;;7395690;19;20133;-75
2022/09/19 04:39:52;;;;;;;2.03;0.43;;;11.80;99.90;;;;;;7395502;19;20591;-76
2022/09/19 04:42:18;;;;;;;0.87;0.47;;;12.00;99.90;;;;;;7396260;19;20165;-76
2022/09/19 04:44:44;;;;;;;2.03;0.70;;;11.80;99.90;;;;;;7397024;19;20138;-76
2022/09/19 04:47:10;;;;;;;1.47;0.67;;;11.70;99.90;;;;;;7397063;19;20202;-76
2022/09/19 04:49:39;;;;;;;1.07;0.40;;;11.80;99.90;;;;;;7394199;19;20608;-75
2022/09/19 04:52:12;;;;;;;2.17;0.60;;;12.10;99.90;;;;;;7397302;19;20142;-76
2022/09/19 04:54:38;;;;;;;3.40;0.80;;;11.90;99.90;;;;;;7396637;19;20142;-75
2022/09/19 04:57:06;;;;;;;2.33;0.70;;;11.90;99.90;;;;;;7395359;19;20488;-75
2022/09/19 04:59:33;;;;;;;3.10;0.80;;;12.10;99.90;;;;;;7392470;19;20161;-76
2022/09/19 05:02:01;;;;;;;0.83;0.60;;;12.00;99.90;;;;;;7394333;19;20206;-74
2022/09/19 05:04:27;;;;;;;3.53;1.23;;;12.10;99.90;;;;;;7393726;19;20145;-75
2022/09/19 05:06:53;;;;;;;4.27;1.07;;;12.20;99.90;;;;;;7392714;19;20138;-76
2022/09/19 05:09:22;;;;;;;4.70;0.70;;;12.00;99.90;;;;;;7391600;19;20161;-77
2022/09/19 05:11:48;;;;;;;2.43;1.07;;;12.20;99.90;;;;;;7394181;19;20750;-76
2022/09/19 05:14:14;;;;;;;3.43;1.03;;;11.90;99.90;;;;;;7396189;19;20135;-74
2022/09/19 05:16:41;;;;;;;2.67;0.87;;;12.00;99.90;;;;;;7399930;19;20162;-77
2022/09/19 05:19:07;;;;;;;3.00;0.80;;;12.10;99.90;;;;;;7393445;19;20135;-76
2022/09/19 05:21:33;;;;;;;2.00;0.70;;;12.00;99.90;;;;;;7394357;19;20164;-75
2022/09/19 05:24:02;;;;;;;2.77;0.73;;;12.10;99.90;;;;;;7391560;19;20147;-74
2022/09/19 05:26:28;;;;;;;2.23;0.80;;;12.20;99.90;;;;;;7394818;19;20150;-75
2022/09/19 05:28:54;;;;;;;3.97;0.70;;;12.20;99.90;;;;;;7391552;19;20135;-73
2022/09/19 05:31:20;;;;;;;3.00;0.97;;;12.20;99.90;;;;;;7392546;19;20146;-75
2022/09/19 05:33:46;;;;;;;2.70;0.80;;;12.10;99.90;;;;;;7395309;19;20761;-76
2022/09/19 05:36:13;;;;;;;2.83;0.70;;;12.10;99.90;;;;;;7390870;19;20162;-76
2022/09/19 05:38:39;;;;;;;4.47;1.00;;;12.30;99.90;;;;;;7389168;19;20134;-75
2022/09/19 05:41:05;;;;;;;1.47;0.63;;;12.20;99.90;;;;;;7389680;19;20486;-77
2022/09/19 05:43:32;;;;;;;2.50;0.80;;;12.30;99.90;;;;;;7385982;19;20158;-75
2022/09/19 05:45:59;;;;;;;2.57;0.90;;;12.50;99.90;;;;;;7387934;19;20146;-77
2022/09/19 05:48:26;;;;;;;3.90;1.10;;;12.60;99.90;;;;;;7391559;19;20147;-76
2022/09/19 05:50:53;;;;;;;5.53;0.97;;;12.50;99.90;;;;;;7388132;19;20604;-76
2022/09/19 05:56:05;;;;;;;2.90;0.83;;;12.50;99.90;;;;;;7392897;19;20146;-76
2022/09/19 05:58:33;;;;;;;3.63;0.80;;;12.50;99.90;;;;;;7390297;19;20472;-78
2022/09/19 06:01:06;;;;;;;3.40;0.90;;;12.40;99.90;;;;;;7394796;19;20785;-77
2022/09/19 06:03:34;;;;;;;2.93;0.90;;;12.50;99.90;;;;;;7390929;19;20596;-77
2022/09/19 06:06:00;;;;;;;4.43;1.00;;;12.50;99.90;;;;;;7391799;19;20141;-77
2022/09/19 06:08:26;;;;;;;4.07;0.90;;;12.10;99.90;;;;;;7392336;19;20147;-78
2022/09/19 06:10:52;;;;;;;2.80;0.90;;;12.10;99.90;;;;;;7392670;19;20135;-78
2022/09/19 06:13:20;;;;;;;3.70;1.10;;;12.10;99.90;;;;;;7387523;19;20165;-79
2022/09/19 06:15:47;;;;;;;3.67;0.97;;;12.30;99.90;;;;;;7389290;19;20147;-78
2022/09/19 06:18:13;;;;;;;5.47;1.20;;;12.20;99.90;;;;;;7391800;19;20158;-77
2022/09/19 06:20:40;;;;;;;3.70;0.93;;;12.30;99.90;;;;;;7390474;19;20131;-79
2022/09/19 06:23:08;;;;;;;1.97;0.90;;;12.40;99.90;;;;;;7392779;19;20135;-78
2022/09/19 06:25:35;;;;;;;3.53;1.23;;;12.40;99.90;;;;;;7390747;19;20193;-78
2022/09/19 06:28:05;;;;;;;5.60;1.20;;;12.30;99.90;;;;;;7390352;19;20154;-78
2022/09/19 06:30:34;;;;;;;4.63;1.10;;;12.50;99.90;;;;;;7386279;19;20195;-76
2022/09/19 06:33:01;;;;;;;3.50;1.00;;;12.60;99.90;;;;;;7391179;19;20138;-78
2022/09/19 06:35:28;;;;;;;7.33;1.30;;;12.70;99.90;;;;;;7387032;19;20257;-76
2022/09/19 06:38:01;;;;;;;2.73;1.10;;;12.80;99.90;;;;;;7388348;19;20666;-78
2022/09/19 06:40:28;;;;;;;2.57;0.80;;;12.80;99.90;;;;;;7389852;19;20174;-76
2022/09/19 06:43:01;;;;;;;6.23;1.40;;;12.80;99.90;;;;;;7388950;19;20534;-77
2022/09/19 06:45:29;;;;;;;5.83;1.47;;;12.70;99.90;;;;;;7388599;19;20147;-77
2022/09/19 06:47:56;;;;;;;3.57;0.97;;;12.80;99.90;;;;;;7389987;19;20142;-78
2022/09/19 06:50:23;;;;;;;4.67;0.87;;;12.60;99.90;;;;;;7389796;19;20606;-76
2022/09/19 06:52:48;;;;;;;4.80;1.00;;;12.90;99.90;;;;;;7391714;19;20214;-79
2022/09/19 06:55:14;;;;;;;5.93;1.27;;;12.70;99.90;;;;;;7393206;19;20179;-77
2022/09/19 06:57:40;;;;;;;5.70;1.20;;;12.60;99.90;;;;;;7390991;19;20145;-77
2022/09/19 07:00:06;;;;;;;7.43;1.23;;;12.80;99.90;;;;;;7389306;19;20165;-77
2022/09/19 07:02:33;;;;;;;4.33;1.27;;;12.90;99.90;;;;;;7394361;19;20161;-77
2022/09/19 07:05:00;;;;;;;7.30;1.30;;;13.00;99.90;;;;;;7389038;19;20600;-77
2022/09/19 07:07:26;;;;;;;4.50;1.30;;;13.00;99.90;;;;;;7392272;19;20143;-76
2022/09/19 07:09:51;;;;;;;8.87;1.80;;;13.10;99.90;;;;;;7390660;19;20140;-76
2022/09/19 07:12:17;;;;;;;3.23;0.90;;;13.20;99.90;;;;;;7392675;19;20483;-77
2022/09/19 07:14:44;;;;;;;5.05;1.27;;;13.20;99.90;;;;;;7391353;19;20782;-78
2022/09/19 07:17:15;;;;;;;4.33;1.30;;;13.40;99.90;;;;;;7391068;19;20146;-76
2022/09/19 07:19:44;;;;;;;4.30;1.33;;;13.30;99.90;;;;;;7390542;19;20165;-76
2022/09/19 07:22:10;;;;;;;6.93;1.60;;;13.50;99.90;;;;;;7391227;19;20161;-76
2022/09/19 07:24:35;;;;;;;5.23;1.03;;;13.40;99.90;;;;;;7390864;19;20150;-77
2022/09/19 07:27:01;;;;;;;4.90;1.10;;;13.40;99.90;;;;;;7390104;19;20202;-77
2022/09/19 07:29:27;;;;;;;3.87;1.00;;;13.40;99.90;;;;;;7390198;19;20248;-77
2022/09/19 07:31:53;;;;;;;8.93;1.17;;;13.70;99.90;;;;;;7392486;19;20130;-76
2022/09/19 07:34:19;;;;;;;4.53;2.10;;;13.40;99.90;;;;;;7393145;19;20226;-75
2022/09/19 07:36:44;;;;;;;2.63;1.13;;;13.30;99.90;;;;;;7392199;19;20131;-77
2022/09/19 07:39:10;;;;;;;2.70;1.10;;;13.10;99.90;;;;;;7392125;19;20127;-78
2022/09/19 07:41:36;;;;;;;6.27;1.50;;;13.20;99.90;;;;;;7389299;19;20150;-78
2022/09/19 07:44:02;;;;;;;4.07;1.20;;;13.20;99.90;;;;;;7388862;19;20163;-76
2022/09/19 07:46:27;;;;;;;3.67;1.07;;;13.30;99.90;;;;;;7389187;19;20232;-76
2022/09/19 07:48:54;;;;;;;3.57;1.43;;;13.40;99.90;;;;;;7388884;19;20463;-76
2022/09/19 07:51:20;;;;;;;2.53;1.00;;;13.30;99.90;;;;;;7399078;19;20145;-75
2022/09/19 07:53:46;;;;;;;6.47;1.43;;;13.20;99.90;;;;;;7397827;19;20583;-77
2022/09/19 07:56:12;;;;;;;12.13;1.87;;;13.30;99.90;;;;;;7387252;19;20142;-77
2022/09/19 07:58:38;;;;;;;3.73;1.00;;;13.40;99.90;;;;;;7388398;19;20131;-77
2022/09/19 08:01:04;;;;;;;1.43;0.83;;;13.40;99.90;;;;;;7387409;19;20135;-77
2022/09/19 08:03:30;;;;;;;3.70;1.00;;;13.40;99.90;;;;;;7384584;19;20142;-76
2022/09/19 08:05:59;;;;;;;5.43;1.30;;;13.50;99.90;;;;;;7388082;19;20434;-77
2022/09/19 08:08:26;;;;;;;6.23;1.50;;;13.60;99.90;;;;;;7389544;19;20161;-77
2022/09/19 08:10:54;;;;;;;5.07;1.00;;;13.60;99.90;;;;;;7391229;19;20134;-77
2022/09/19 08:13:21;;;;;;;5.57;1.30;;;13.40;99.90;;;;;;7395488;19;20131;-77
2022/09/19 08:15:51;;;;;;;3.67;1.20;;;13.40;99.90;;;;;;7398093;19;20214;-76
2022/09/19 08:18:19;;;;;;;2.67;1.10;;;13.50;99.90;;;;;;7396331;19;20150;-78
2022/09/19 08:20:45;;;;;;;5.03;1.63;;;13.60;99.90;;;;;;7397273;19;20156;-76
2022/09/19 08:23:16;;;;;;;5.30;1.30;;;13.60;99.90;;;;;;7398095;19;20131;-77
2022/09/19 08:25:46;;;;;;;5.00;1.67;;;13.60;99.90;;;;;;7395816;19;20198;-77
2022/09/19 08:28:13;;;;;;;5.10;1.30;;;13.80;99.90;;;;;;7391756;19;20154;-78
2022/09/19 08:30:42;;;;;;;2.05;0.88;;;13.60;99.90;;;;;;7395564;19;20161;-78
2022/09/19 08:33:09;;;;;;;4.15;2.05;;;13.40;99.90;;;;;;7394614;19;20165;-78
2022/09/19 08:35:38;;;;;;;3.67;1.20;;;13.50;99.90;;;;;;7397518;19;20134;-77
2022/09/19 08:38:07;;;;;;;5.27;0.90;;;13.60;99.90;;;;;;7397059;19;20143;-78
2022/09/19 08:40:51;;;;;;;4.37;1.30;;;13.70;99.90;;;;;;7395965;19;20157;-76
2022/09/19 08:43:37;;;;;;;5.27;1.30;;;13.80;99.90;;;;;;7393375;19;20157;-79
2022/09/19 08:46:11;;;;;;;3.23;1.13;;;13.80;99.90;;;;;;7397641;19;20156;-77
2022/09/19 08:48:57;;;;;;;5.23;2.13;;;13.80;99.90;;;;;;7394319;19;20134;-78
2022/09/19 08:51:47;;;;;;;7.10;3.00;;;13.90;99.90;;;;;;7393608;19;20146;-77
2022/09/19 08:54:19;;;;;;;4.53;1.53;;;13.90;99.90;;;;;;7395446;19;20142;-77
2022/09/19 08:56:45;;;;;;;6.83;1.60;;;13.90;99.90;;;;;;7394620;19;20154;-78
2022/09/19 08:59:15;;;;;;;5.07;1.60;;;13.90;99.90;;;;;;7392705;19;20148;-77
2022/09/19 09:01:40;;;;;;;2.93;1.10;;;14.00;99.90;;;;;;7394621;19;20785;-78
2022/09/19 09:04:31;;;;;;;4.17;1.20;;;14.00;99.90;;;;;;7393666;19;20131;-78
2022/09/19 09:07:18;;;;;;;2.83;1.20;;;14.10;99.90;;;;;;7394510;19;20135;-77
2022/09/19 09:10:07;;;;;;;5.17;1.43;;;14.10;99.90;;;;;;7391869;19;20155;-77
2022/09/19 09:12:47;;;;;;;4.03;1.10;;;14.10;99.90;;;;;;7395045;19;20234;-78
2022/09/19 09:15:36;;;;;;;3.53;1.10;;;14.20;99.90;;;;;;7394075;19;20150;-77
2022/09/19 09:18:11;;;;;;;1.80;1.17;;;14.20;99.90;;;;;;7395982;19;20760;-77
2022/09/19 09:20:56;;;;;;;5.32;2.28;;;13.90;99.90;;;;;;7390964;19;20624;-77
2022/09/19 09:23:27;;;;;;;4.60;1.60;;;13.80;99.90;;;;;;7389247;19;20144;-77
2022/09/19 09:26:15;;;;;;;3.23;1.80;;;13.90;99.90;;;;;;7392681;19;20158;-77
2022/09/19 09:28:41;;;;;;;2.77;1.30;;;14.00;99.90;;;;;;7392080;19;20147;-76
2022/09/19 09:31:33;;;;;;;5.37;1.47;;;14.00;99.90;;;;;;7398851;19;20463;-76
2022/09/19 09:34:07;;;;;;;6.20;1.80;;;14.00;99.90;;;;;;7391202;19;20151;-77
2022/09/19 09:36:39;;;;;;;4.22;1.50;;;14.20;99.90;;;;;;7388499;19;20150;-77
2022/09/19 09:39:21;;;;;;;5.20;1.50;;;14.40;99.90;;;;;;7395291;19;20158;-77
2022/09/19 09:41:57;;;;;;;4.70;1.20;;;14.10;99.90;;;;;;7396973;19;20146;-79
2022/09/19 09:44:31;;;;;;;3.05;0.98;;;14.00;99.90;;;;;;7393144;19;20118;-78
2022/09/19 09:47:18;;;;;;;3.40;1.20;;;14.10;99.90;;;;;;7391755;19;20146;-78
2022/09/19 09:49:44;;;;;;;4.75;1.73;;;14.10;99.90;;;;;;7393884;19;20737;-77
2022/09/19 09:52:51;;;;;;;5.17;1.40;;;13.80;99.90;;;;;;7394056;19;20157;-79
2022/09/19 09:58:41;;;;;;;3.57;1.37;;;14.10;99.90;;;;;;7392002;19;20599;-79
2022/09/19 10:04:58;;;;;;;4.35;1.10;;;14.70;99.90;;;;;;7393882;19;20194;-78
2022/09/19 10:07:58;;;;;;;3.83;1.27;;;14.50;99.90;;;;;;7390491;19;20143;-78
2022/09/19 10:10:25;;;;;;;4.53;1.10;;;14.70;99.90;;;;;;7391525;19;20471;-78
2022/09/19 10:13:25;;;;;;;3.35;1.02;;;14.70;99.90;;;;;;7388606;19;20233;-79
2022/09/19 10:15:55;;;;;;;5.40;1.10;;;14.60;99.90;;;;;;7389687;19;20543;-78
2022/09/19 10:18:27;;;;;;;5.20;2.05;;;14.80;99.90;;;;;;7391278;19;20137;-78
2022/09/19 10:20:54;;;;;;;6.43;2.10;;;14.60;99.90;;;;;;7390732;19;20149;-78
2022/09/19 10:23:24;;;;;;;4.40;1.40;;;14.80;99.90;;;;;;7392638;19;20138;-77
2022/09/19 10:25:59;;;;;;;2.47;0.93;;;14.80;99.90;;;;;;7392442;19;20151;-79
2022/09/19 10:28:43;;;;;;;4.43;1.20;;;14.70;99.90;;;;;;7390547;19;20461;-78
2022/09/19 10:31:34;;;;;;;2.35;0.90;;;14.90;99.90;;;;;;7391922;19;20127;-77
2022/09/19 10:34:06;;;;;;;2.83;1.65;;;14.70;99.90;;;;;;7391917;19;20631;-78
2022/09/19 10:36:43;;;;;;;4.90;1.00;;;14.90;99.90;;;;;;7389187;19;20261;-78
2022/09/19 10:39:13;;;;;;;3.55;1.33;;;14.80;99.90;;;;;;7391247;19;20786;-78
2022/09/19 10:41:42;;;;;;;3.35;1.02;;;15.00;99.90;;;;;;7391128;19;20137;-77
2022/09/19 10:44:24;;;;;;;4.40;1.13;;;15.20;99.90;;;;;;7399342;19;20139;-77
2022/09/19 10:47:03;;;;;;;2.38;1.00;;;15.00;99.90;;;;;;7398155;19;20123;-77
2022/09/19 10:49:45;;;;;;;4.32;1.30;;;14.90;99.90;;;;;;7391378;19;20138;-76
2022/09/19 10:52:20;;;;;;;3.20;1.23;;;15.00;99.90;;;;;;7390565;19;20151;-79
2022/09/19 10:54:49;;;;;;;4.80;1.00;;;15.10;99.90;;;;;;7388807;19;20146;-79
2022/09/19 10:57:51;;;;;;;2.60;1.00;;;15.20;99.90;;;;;;7390175;19;20600;-78
2022/09/19 11:00:20;;;;;;;3.17;1.75;;;15.20;99.90;;;;;;7390910;19;20163;-75
2022/09/19 11:03:02;;;;;;;2.28;1.00;;;15.30;99.90;;;;;;7391662;19;20134;-77
2022/09/19 11:05:31;;;;;;;3.97;1.40;;;15.20;99.90;;;;;;7391086;19;20138;-77
2022/09/19 11:07:59;;;;;;;5.55;1.42;;;15.20;99.90;;;;;;7389245;19;20595;-78
2022/09/19 11:10:39;;;;;;;2.10;1.30;;;15.40;99.90;;;;;;7388019;19;20185;-80
2022/09/19 11:13:25;;;;;;;3.35;1.17;;;15.50;99.90;;;;;;7392191;19;20472;-80
2022/09/19 11:16:10;;;;;;;4.35;1.38;;;15.40;99.90;;;;;;7394516;19;20579;-80
2022/09/19 11:19:06;;;;;;;1.75;0.80;;;15.60;99.90;;;;;;7389538;19;20141;-76
2022/09/19 11:22:03;;;;;;;2.63;1.43;;;15.50;99.90;;;;;;7402972;19;20134;-77
2022/09/19 11:24:49;;;;;;;2.50;0.98;;;15.50;99.90;;;;;;7387084;19;20186;-77
2022/09/19 11:27:41;;;;;;;3.58;0.95;;;15.40;99.90;;;;;;7391574;19;20146;-77
2022/09/19 11:30:20;;;;;;;2.72;0.80;;;15.40;99.90;;;;;;7388694;19;20170;-77
2022/09/19 11:33:00;;;;;;;2.15;0.85;;;15.10;99.90;;;;;;7390335;19;20126;-77
2022/09/19 11:35:29;;;;;;;1.65;0.80;;;14.90;99.90;;;;;;7390670;19;20266;-75
2022/09/19 11:38:02;;;;;;;1.73;0.80;;;15.00;99.90;;;;;;7390654;19;20170;-77
2022/09/19 11:40:52;;;;;;;3.58;2.20;;;15.10;99.90;;;;;;7390899;19;20619;-77
2022/09/19 11:43:45;;;;;;;3.50;1.00;;;15.10;99.90;;;;;;7389701;19;20171;-76
2022/09/19 11:46:37;;;;;;;2.45;1.05;;;15.20;99.90;;;;;;7397249;19;20237;-76
2022/09/19 11:49:14;;;;;;;3.25;1.10;;;15.20;99.90;;;;;;7409720;19;20395;-76
2022/09/19 11:52:06;;;;;;;2.80;0.98;;;15.20;99.90;;;;;;7399957;19;20592;-76
2022/09/19 11:55:07;;;;;;;2.17;0.93;;;15.10;99.90;;;;;;7400603;19;20145;-77
2022/09/19 11:57:46;;;;;;;2.20;0.82;;;14.90;99.90;;;;;;7401766;19;20242;-76
2022/09/19 12:00:18;;;;;;;4.55;0.95;;;14.80;99.90;;;;;;7396621;19;20165;-76
2022/09/19 12:02:45;;;;;;;3.55;0.90;;;14.90;99.90;;;;;;7400277;19;20202;-76
2022/09/19 12:05:24;;;;;;;3.75;1.00;;;15.00;99.90;;;;;;7399147;19;20565;-75
2022/09/19 12:08:04;;;;;;;2.55;1.02;;;15.10;99.90;;;;;;7399326;19;20151;-77
2022/09/19 12:10:35;;;;;;;3.53;1.10;;;15.20;99.90;;;;;;7396513;19;20142;-76
2022/09/19 12:13:25;;;;;;;5.53;1.23;;;15.30;99.90;;;;;;7399422;19;20219;-77
2022/09/19 12:15:56;;;;;;;2.50;0.90;;;15.40;99.90;;;;;;7398238;19;20216;-77
2022/09/19 12:18:40;;;;;;;7.07;1.45;;;15.20;99.90;;;;;;7393928;19;20161;-76
2022/09/19 12:21:08;;;;;;;5.35;1.13;;;15.30;99.90;;;;;;7397416;19;20179;-77
2022/09/19 12:26:54;;;;;;;1.15;0.90;;;15.50;99.90;;;;;;7395006;19;20145;-76
2022/09/19 12:29:26;;;;;;;1.60;0.90;;;15.40;99.90;;;;;;7393023;19;20507;-77
2022/09/19 12:31:59;;;;;;;1.75;0.90;;;15.50;99.90;;;;;;7398439;19;20134;-78
2022/09/19 12:34:47;;;;;;;2.15;0.90;;;15.90;99.90;;;;;;7396260;19;20143;-78
2022/09/19 12:37:30;;;;;;;1.17;0.70;;;15.50;99.90;;;;;;7394940;19;20147;-77
2022/09/19 12:40:35;;;;;;;2.88;1.05;;;15.70;99.90;;;;;;7393565;19;20161;-78
2022/09/19 12:43:15;;;;;;;2.95;0.90;;;15.90;99.90;;;;;;7398711;19;20627;-77
2022/09/19 12:45:59;;;;;;;3.10;1.33;;;16.00;99.90;;;;;;7395660;19;20154;-77
2022/09/19 12:48:42;;;;;;;2.75;1.00;;;16.10;99.90;;;;;;7394901;19;20624;-76
2022/09/19 12:51:13;;;;;;;2.10;0.85;;;16.20;99.90;;;;;;7395864;19;20135;-79
2022/09/19 12:53:51;;;;;;;1.35;0.70;;;16.20;99.90;;;;;;7390476;19;20218;-76
2022/09/19 12:56:28;;;;;;;1.33;0.73;;;16.10;99.90;;;;;;7393045;19;20587;-76
2022/09/19 12:59:25;;;;;;;2.42;0.85;;;16.10;99.90;;;;;;7392210;19;20166;-77
2022/09/19 13:01:59;;;;;;;5.43;1.13;;;16.00;99.90;;;;;;7392315;19;20815;-76
2022/09/19 13:04:42;;;;;;;3.63;1.00;;;16.00;99.90;;;;;;7392098;19;20510;-76
2022/09/19 13:07:22;;;;;;;3.90;0.95;;;15.90;99.90;;;;;;7393257;19;20157;-76
2022/09/19 13:10:00;;;;;;;2.83;0.82;;;15.90;99.90;;;;;;7392244;19;20906;-77
2022/09/19 13:12:43;;;;;;;1.98;0.75;;;16.00;99.90;;;;;;7394994;19;20503;-77
2022/09/19 13:15:36;;;;;;;3.50;0.93;;;15.90;99.90;;;;;;7393094;19;20135;-76
2022/09/19 13:23:36;;;;;;;3.60;1.20;;;15.80;99.90;;;;;;7398395;19;20486;-76
2022/09/19 13:26:19;;;;;;;1.40;0.70;;;15.80;99.90;;;;;;7393282;19;20155;-76
2022/09/19 13:28:51;;;;;;;3.55;0.88;;;15.80;99.90;;;;;;7394431;19;20175;-76
2022/09/19 13:31:19;;;;;;;4.95;0.95;;;15.80;99.90;;;;;;7397298;19;20149;-76
2022/09/19 13:33:45;;;;;;;5.35;1.17;;;15.60;99.90;;;;;;7396179;19;20142;-75
2022/09/19 13:36:17;;;;;;;6.80;0.93;;;15.60;99.90;;;;;;7393594;19;20182;-76
2022/09/19 13:38:46;;;;;;;2.90;1.15;;;15.80;99.90;;;;;;7388785;19;20147;-75
2022/09/19 13:41:33;;;;;;;4.28;0.88;;;15.80;99.90;;;;;;7395394;19;20254;-75
2022/09/19 13:44:08;;;;;;;1.23;0.70;;;15.90;99.90;;;;;;7394353;19;20146;-78